createdAt,value
2018-09-24T00:00:50.341Z,101484.30
2018-09-24T00:03:18.492Z,101491.16
2018-09-24T00:05:46.568Z,101496.85
2018-09-24T00:08:14.658Z,101505.55
2018-09-24T00:10:42.731Z,101511.88
2018-09-24T00:13:10.837Z,101517.41
2018-09-24T00:15:38.907Z,101517.41
2018-09-24T00:18:06.984Z,101529.27
2018-09-24T00:20:35.057Z,101527.27
2018-09-24T00:23:03.145Z,101538.13
2018-09-24T00:25:31.220Z,101535.47
2018-09-24T00:27:59.309Z,101541.97
2018-09-24T00:30:27.383Z,101551.16
2018-09-24T00:32:55.476Z,101554.69
2018-09-24T00:35:23.560Z,101571.58
2018-09-24T00:37:51.653Z,101570.23
2018-09-24T00:40:19.750Z,101577.11
2018-09-24T00:42:47.841Z,101584.10
2018-09-24T00:45:15.915Z,101586.47
2018-09-24T00:47:44.217Z,101588.77
2018-09-24T00:50:12.643Z,101597.48
2018-09-24T00:52:40.746Z,101593.47
2018-09-24T00:55:08.823Z,101594.12
2018-09-24T00:57:36.911Z,101596.14
2018-09-24T01:00:05.001Z,101590.30
2018-09-24T01:02:33.154Z,101595.48
2018-09-24T01:05:01.292Z,101605.18
2018-09-24T01:07:29.306Z,101604.50
2018-09-24T01:09:57.369Z,101612.83
2018-09-24T01:12:25.471Z,101620.85
2018-09-24T01:14:53.548Z,101625.33
2018-09-24T01:17:21.620Z,101629.02
2018-09-24T01:19:49.742Z,101640.84
2018-09-24T01:22:17.836Z,101651.17
2018-09-24T01:24:45.945Z,101651.91
2018-09-24T01:27:14.060Z,101656.01
2018-09-24T01:29:42.132Z,101660.20
2018-09-24T01:32:10.237Z,101666.70
2018-09-24T01:34:38.315Z,101669.93
2018-09-24T01:37:06.427Z,101673.55
2018-09-24T01:39:34.525Z,101686.58
2018-09-24T01:42:02.635Z,101699.73
2018-09-24T01:44:30.726Z,101692.11
2018-09-24T01:46:58.796Z,101698.04
2018-09-24T01:49:26.907Z,101707.10
2018-09-24T01:51:54.999Z,101707.25
2018-09-24T01:54:27.758Z,101714.49
2018-09-24T01:56:55.842Z,101714.63
2018-09-24T01:59:24.015Z,101720.09
2018-09-24T02:01:52.092Z,101723.16
2018-09-24T02:04:20.162Z,101720.27
2018-09-24T02:06:48.324Z,101723.77
2018-09-24T02:09:16.407Z,101728.80
2018-09-24T02:11:44.749Z,101731.02
2018-09-24T02:14:12.844Z,101739.93
2018-09-24T02:16:40.908Z,101742.95
2018-09-24T02:19:08.995Z,101744.79
2018-09-24T02:21:37.065Z,101748.64
2018-09-24T02:24:06.161Z,101750.14
2018-09-24T02:26:34.321Z,101752.72
2018-09-24T02:29:02.417Z,101765.91
2018-09-24T02:31:34.672Z,101764.38
2018-09-24T02:34:02.766Z,101770.80
2018-09-24T02:36:30.839Z,101768.73
2018-09-24T02:38:58.937Z,101783.23
2018-09-24T02:41:27.021Z,101781.75
2018-09-24T02:43:55.091Z,101779.45
2018-09-24T02:46:23.188Z,101778.19
2018-09-24T02:48:51.266Z,101775.06
2018-09-24T02:51:19.348Z,101782.56
2018-09-24T02:53:47.431Z,101791.52
2018-09-24T02:56:15.492Z,101799.37
2018-09-24T02:58:43.579Z,101804.47
2018-09-24T03:01:11.750Z,101819.95
2018-09-24T03:03:39.755Z,101821.72
2018-09-24T03:06:07.821Z,101822.33
2018-09-24T03:08:37.029Z,101818.00
2018-09-24T03:11:05.603Z,101827.79
2018-09-24T03:13:33.709Z,101830.58
2018-09-24T03:16:01.794Z,101836.14
2018-09-24T03:18:29.912Z,101839.34
2018-09-24T03:20:58.058Z,101830.98
2018-09-24T03:23:26.180Z,101825.02
2018-09-24T03:25:54.247Z,101830.59
2018-09-24T03:28:23.248Z,101828.50
2018-09-24T03:30:51.329Z,101839.19
2018-09-24T03:33:19.440Z,101845.19
2018-09-24T03:35:47.513Z,101843.45
2018-09-24T03:38:15.592Z,101843.75
2018-09-24T03:40:43.685Z,101844.20
2018-09-24T03:43:11.758Z,101847.41
2018-09-24T03:45:39.844Z,101857.63
2018-09-24T03:48:07.910Z,101847.06
2018-09-24T03:50:36.003Z,101853.03
2018-09-24T03:53:04.095Z,101859.30
2018-09-24T03:55:32.188Z,101865.65
2018-09-24T03:58:00.247Z,101862.05
2018-09-24T04:00:28.328Z,101868.43
2018-09-24T04:02:56.435Z,101882.43
2018-09-24T04:05:29.817Z,101884.14
2018-09-24T04:08:03.136Z,101892.36
2018-09-24T04:10:36.636Z,101885.89
2018-09-24T04:13:10.043Z,101897.73
2018-09-24T04:15:43.519Z,101907.31
2018-09-24T04:18:17.015Z,101901.64
2018-09-24T04:20:50.519Z,101910.14
2018-09-24T04:23:24.045Z,101911.57
2018-09-24T04:25:57.540Z,101913.98
2018-09-24T04:28:31.012Z,101918.58
2018-09-24T04:31:04.535Z,101927.59
2018-09-24T04:33:37.901Z,101927.69
2018-09-24T04:36:11.426Z,101928.50
2018-09-24T04:38:44.867Z,101923.05
2018-09-24T04:41:18.311Z,101932.86
2018-09-24T04:43:51.764Z,101937.67
2018-09-24T04:46:25.291Z,101937.77
2018-09-24T04:48:58.902Z,101945.41
2018-09-24T04:51:32.235Z,101951.27
2018-09-24T04:54:05.744Z,101951.58
2018-09-24T04:56:39.253Z,101949.76
2018-09-24T04:59:12.600Z,101949.48
2018-09-24T05:01:46.096Z,101957.00
2018-09-24T05:04:19.642Z,101958.27
2018-09-24T05:06:53.088Z,101963.50
2018-09-24T05:09:26.562Z,101964.12
2018-09-24T05:12:00.107Z,101974.72
2018-09-24T05:14:33.586Z,101981.75
2018-09-24T05:17:07.183Z,101972.94
2018-09-24T05:19:40.654Z,101980.77
2018-09-24T05:22:14.314Z,101991.15
2018-09-24T05:24:47.652Z,101991.44
2018-09-24T05:27:21.627Z,101996.14
2018-09-24T05:29:55.082Z,101994.53
2018-09-24T05:32:29.044Z,102003.73
2018-09-24T05:35:02.583Z,102007.95
2018-09-24T05:37:36.086Z,102019.53
2018-09-24T05:40:09.527Z,102018.75
2018-09-24T05:42:43.771Z,102030.11
2018-09-24T05:45:23.795Z,102040.70
2018-09-24T05:47:57.145Z,102043.29
2018-09-24T05:50:30.631Z,102040.55
2018-09-24T05:53:04.131Z,102034.39
2018-09-24T05:55:37.618Z,102045.81
2018-09-24T05:58:11.043Z,102062.16
2018-09-24T06:00:44.491Z,102067.16
2018-09-24T06:03:18.017Z,102066.38
2018-09-24T06:05:51.540Z,102073.05
2018-09-24T06:08:25.042Z,102069.44
2018-09-24T06:10:58.571Z,102071.48
2018-09-24T06:13:32.094Z,102077.30
2018-09-24T06:16:05.478Z,102091.11
2018-09-24T06:18:38.947Z,102093.66
2018-09-24T06:21:12.415Z,102103.73
2018-09-24T06:23:45.929Z,102106.83
2018-09-24T06:26:19.456Z,102106.59
2018-09-24T06:28:52.803Z,102116.95
2018-09-24T06:31:26.299Z,102119.23
2018-09-24T06:33:59.755Z,102124.87
2018-09-24T06:36:33.280Z,102127.16
2018-09-24T06:39:06.792Z,102131.23
2018-09-24T06:41:40.321Z,102139.95
2018-09-24T06:44:13.996Z,102141.45
2018-09-24T06:46:47.488Z,102139.55
2018-09-24T06:49:20.999Z,102146.82
2018-09-24T06:51:54.505Z,102153.30
2018-09-24T06:54:27.995Z,102152.91
2018-09-24T06:57:01.492Z,102162.41
2018-09-24T06:59:35.093Z,102167.84
2018-09-24T07:02:08.530Z,102173.59
2018-09-24T07:04:41.865Z,102182.80
2018-09-24T07:07:15.371Z,102179.52
2018-09-24T07:09:48.847Z,102183.86
2018-09-24T07:12:22.356Z,102184.95
2018-09-24T07:14:55.649Z,102186.61
2018-09-24T07:17:29.164Z,102199.87
2018-09-24T07:20:02.667Z,102204.30
2018-09-24T07:22:36.078Z,102209.09
2018-09-24T07:25:09.499Z,102212.53
2018-09-24T07:27:43.047Z,102213.53
2018-09-24T07:30:16.452Z,102213.37
2018-09-24T07:32:49.965Z,102220.47
2018-09-24T07:35:23.407Z,102231.79
2018-09-24T07:37:56.878Z,102231.70
2018-09-24T07:40:30.343Z,102243.50
2018-09-24T07:43:03.922Z,102234.00
2018-09-24T07:45:37.276Z,102236.63
2018-09-24T07:48:10.823Z,102238.06
2018-09-24T07:50:44.212Z,102238.75
2018-09-24T07:53:17.746Z,102244.86
2018-09-24T07:55:51.351Z,102253.58
2018-09-24T07:58:24.776Z,102253.13
2018-09-24T08:00:58.320Z,102252.53
2018-09-24T08:03:31.755Z,102251.23
2018-09-24T08:06:05.216Z,102252.24
2018-09-24T08:08:38.702Z,102257.44
2018-09-24T08:11:12.188Z,102256.75
2018-09-24T08:13:45.523Z,102256.91
2018-09-24T08:16:19.028Z,102264.36
2018-09-24T08:18:52.586Z,102270.86
2018-09-24T08:21:26.041Z,102270.86
2018-09-24T08:23:59.575Z,102261.53
2018-09-24T08:26:33.144Z,102271.93
2018-09-24T08:29:06.680Z,102273.89
2018-09-24T08:31:40.170Z,102283.44
2018-09-24T08:34:13.744Z,102281.34
2018-09-24T08:36:47.205Z,102279.37
2018-09-24T08:39:20.527Z,102283.94
2018-09-24T08:41:53.853Z,102289.66
2018-09-24T08:44:27.360Z,102286.01
2018-09-24T08:47:00.939Z,102291.09
2018-09-24T08:49:34.270Z,102291.14
2018-09-24T08:52:07.630Z,102295.41
2018-09-24T08:54:41.181Z,102296.91
2018-09-24T08:57:14.709Z,102299.62
2018-09-24T08:59:48.137Z,102310.88
2018-09-24T09:02:21.468Z,102300.48
2018-09-24T09:04:54.825Z,102323.67
2018-09-24T09:07:28.318Z,102318.98
2018-09-24T09:10:01.849Z,102328.73
2018-09-24T09:12:35.284Z,102332.94
2018-09-24T09:15:08.755Z,102336.99
2018-09-24T09:17:42.204Z,102341.44
2018-09-24T09:20:15.714Z,102339.94
2018-09-24T09:22:49.151Z,102341.30
2018-09-24T09:25:22.489Z,102337.85
2018-09-24T09:27:55.931Z,102342.42
2018-09-24T09:30:29.484Z,102332.00
2018-09-24T09:33:02.935Z,102331.50
2018-09-24T09:35:36.427Z,102336.51
2018-09-24T09:38:09.855Z,102328.13
2018-09-24T09:40:43.230Z,102326.97
2018-09-24T09:43:16.684Z,102322.45
2018-09-24T09:45:50.241Z,102336.04
2018-09-24T09:48:23.696Z,102326.16
2018-09-24T09:50:57.054Z,102334.75
2018-09-24T09:53:30.420Z,102326.33
2018-09-24T09:56:03.684Z,102316.07
2018-09-24T09:58:37.083Z,102310.02
2018-09-24T10:01:10.526Z,102308.84
2018-09-24T10:03:43.992Z,102305.81
2018-09-24T10:06:17.456Z,102312.72
2018-09-24T10:08:50.927Z,102308.66
2018-09-24T10:11:24.427Z,102310.45
2018-09-24T10:13:57.881Z,102306.06
2018-09-24T10:16:31.440Z,102316.88
2018-09-24T10:19:04.969Z,102328.66
2018-09-24T10:21:38.416Z,102326.00
2018-09-24T10:24:12.025Z,102332.56
2018-09-24T10:26:45.436Z,102331.37
2018-09-24T10:29:18.883Z,102335.08
2018-09-24T10:31:52.383Z,102325.97
2018-09-24T10:34:25.847Z,102327.99
2018-09-24T10:36:59.192Z,102327.80
2018-09-24T10:39:32.602Z,102320.73
2018-09-24T10:42:06.036Z,102324.12
2018-09-24T10:44:39.479Z,102317.98
2018-09-24T10:47:12.879Z,102319.78
2018-09-24T10:49:46.346Z,102319.05
2018-09-24T10:52:19.666Z,102323.58
2018-09-24T10:54:53.141Z,102324.84
2018-09-24T10:57:26.623Z,102315.95
2018-09-24T11:00:00.089Z,102302.71
2018-09-24T11:02:33.632Z,102311.27
2018-09-24T11:05:07.126Z,102300.72
2018-09-24T11:07:40.651Z,102315.73
2018-09-24T11:10:14.206Z,102308.30
2018-09-24T11:12:47.676Z,102313.53
2018-09-24T11:15:21.179Z,102312.44
2018-09-24T11:17:54.860Z,102312.64
2018-09-24T11:20:28.243Z,102312.35
2018-09-24T11:23:01.578Z,102301.98
2018-09-24T11:25:35.050Z,102305.00
2018-09-24T11:28:08.525Z,102305.69
2018-09-24T11:30:41.859Z,102301.80
2018-09-24T11:33:15.191Z,102304.29
2018-09-24T11:35:48.669Z,102299.93
2018-09-24T11:38:22.181Z,102302.44
2018-09-24T11:40:55.682Z,102301.41
2018-09-24T11:43:29.027Z,102301.00
2018-09-24T11:46:02.524Z,102300.22
2018-09-24T11:48:35.988Z,102288.70
2018-09-24T11:51:09.447Z,102301.75
2018-09-24T11:53:42.971Z,102295.42
2018-09-24T11:56:16.451Z,102297.61
2018-09-24T11:58:49.933Z,102299.46
2018-09-24T12:01:23.408Z,102287.98
2018-09-24T12:03:56.895Z,102298.05
2018-09-24T12:06:30.376Z,102293.12
2018-09-24T12:09:03.706Z,102288.77
2018-09-24T12:11:37.174Z,102285.38
2018-09-24T12:14:10.571Z,102287.86
2018-09-24T12:16:44.045Z,102280.42
2018-09-24T12:19:17.536Z,102281.86
2018-09-24T12:21:51.003Z,102274.77
2018-09-24T12:24:24.589Z,102269.23
2018-09-24T12:26:58.084Z,102267.66
2018-09-24T12:29:31.547Z,102271.43
2018-09-24T12:32:05.059Z,102276.39
2018-09-24T12:34:38.584Z,102269.66
2018-09-24T12:37:12.063Z,102267.87
2018-09-24T12:39:45.598Z,102280.41
2018-09-24T12:42:19.023Z,102275.23
2018-09-24T12:44:52.476Z,102277.00
2018-09-24T12:47:25.956Z,102275.41
2018-09-24T12:49:59.491Z,102268.38
2018-09-24T12:52:32.999Z,102262.33
2018-09-24T12:55:06.494Z,102261.30
2018-09-24T12:57:40.016Z,102256.16
2018-09-24T13:00:13.499Z,102262.94
2018-09-24T13:02:46.979Z,102268.09
2018-09-24T13:05:20.488Z,102259.86
2018-09-24T13:07:53.955Z,102263.91
2018-09-24T13:10:27.363Z,102264.70
2018-09-24T13:13:00.748Z,102265.84
2018-09-24T13:15:34.161Z,102257.95
2018-09-24T13:18:07.657Z,102259.55
2018-09-24T13:20:41.108Z,102261.23
2018-09-24T13:23:14.545Z,102253.33
2018-09-24T13:25:47.915Z,102255.55
2018-09-24T13:28:21.380Z,102259.05
2018-09-24T13:30:54.875Z,102257.47
2018-09-24T13:33:28.379Z,102255.14
2018-09-24T13:36:01.829Z,102256.30
2018-09-24T13:38:35.291Z,102254.81
2018-09-24T13:41:08.771Z,102246.50
2018-09-24T13:43:42.253Z,102245.40
2018-09-24T13:46:15.827Z,102242.98
2018-09-24T13:48:49.304Z,102250.99
2018-09-24T13:51:22.802Z,102249.85
2018-09-24T13:53:56.263Z,102240.66
2018-09-24T13:56:29.763Z,102242.98
2018-09-24T13:59:03.219Z,102243.99
2018-09-24T14:01:36.700Z,102238.49
2018-09-24T14:04:10.044Z,102234.55
2018-09-24T14:06:43.532Z,102229.48
2018-09-24T14:09:17.015Z,102230.41
2018-09-24T14:11:50.503Z,102237.58
2018-09-24T14:14:23.962Z,102241.20
2018-09-24T14:16:57.469Z,102232.61
2018-09-24T14:19:30.922Z,102230.95
2018-09-24T14:22:04.432Z,102235.48
2018-09-24T14:24:37.923Z,102237.34
2018-09-24T14:27:11.496Z,102233.22
2018-09-24T14:29:44.956Z,102249.48
2018-09-24T14:32:18.471Z,102241.50
2018-09-24T14:34:51.932Z,102246.10
2018-09-24T14:37:25.293Z,102263.02
2018-09-24T14:40:05.747Z,102253.77
2018-09-24T14:42:39.167Z,102244.97
2018-09-24T14:45:12.656Z,102237.17
2018-09-24T14:47:46.232Z,102239.92
2018-09-24T14:50:19.702Z,102247.02
2018-09-24T14:52:53.164Z,102248.58
2018-09-24T14:55:26.648Z,102246.78
2018-09-24T14:58:00.159Z,102252.27
2018-09-24T15:00:33.659Z,102249.61
2018-09-24T15:03:07.207Z,102256.50
2018-09-24T15:05:40.640Z,102254.56
2018-09-24T15:08:14.201Z,102256.16
2018-09-24T15:10:47.563Z,102257.01
2018-09-24T15:13:20.933Z,102255.12
2018-09-24T15:15:54.232Z,102251.48
2018-09-24T15:18:27.751Z,102251.52
2018-09-24T15:21:01.286Z,102253.94
2018-09-24T15:23:34.734Z,102257.26
2018-09-24T15:26:08.091Z,102252.48
2018-09-24T15:28:41.639Z,102259.70
2018-09-24T15:31:15.287Z,102255.38
2018-09-24T15:33:48.758Z,102251.67
2018-09-24T15:36:22.258Z,102247.52
2018-09-24T15:38:55.737Z,102247.41
2018-09-24T15:41:29.200Z,102246.98
2018-09-24T15:44:02.604Z,102243.90
2018-09-24T15:46:36.010Z,102243.79
2018-09-24T15:49:09.505Z,102244.95
2018-09-24T15:51:42.995Z,102247.14
2018-09-24T15:54:16.486Z,102246.98
2018-09-24T15:56:52.814Z,102247.44
2018-09-24T15:59:26.281Z,102248.06
2018-09-24T16:01:59.814Z,102247.95
2018-09-24T16:04:33.156Z,102252.38
2018-09-24T16:07:06.672Z,102248.79
2018-09-24T16:09:40.179Z,102253.56
2018-09-24T16:12:16.029Z,102261.61
2018-09-24T16:14:49.834Z,102263.36
2018-09-24T16:17:23.167Z,102268.27
2018-09-24T16:19:56.692Z,102266.06
2018-09-24T16:22:30.067Z,102266.55
2018-09-24T16:25:03.559Z,102261.74
2018-09-24T16:27:37.931Z,102256.38
2018-09-24T16:30:11.760Z,102263.15
2018-09-24T16:32:45.122Z,102276.30
2018-09-24T16:35:18.656Z,102275.81
2018-09-24T16:37:52.044Z,102282.86
2018-09-24T16:40:25.547Z,102282.22
2018-09-24T16:42:59.252Z,102282.73
2018-09-24T16:45:32.618Z,102277.00
2018-09-24T16:48:06.096Z,102276.34
2018-09-24T16:50:39.577Z,102286.14
2018-09-24T16:53:13.024Z,102285.30
2018-09-24T16:55:46.487Z,102278.59
2018-09-24T16:58:20.056Z,102281.78
2018-09-24T17:00:53.426Z,102286.17
2018-09-24T17:03:29.926Z,102297.59
2018-09-24T17:06:03.333Z,102295.41
2018-09-24T17:08:37.346Z,102299.61
2018-09-24T17:11:10.819Z,102305.97
2018-09-24T17:13:44.780Z,102308.16
2018-09-24T17:16:18.307Z,102311.49
2018-09-24T17:19:01.366Z,102317.53
2018-09-24T17:21:55.309Z,102320.05
2018-09-24T17:27:49.624Z,102327.05
2018-09-24T17:30:33.264Z,102339.30
2018-09-24T17:33:09.028Z,102339.19
2018-09-24T17:35:46.246Z,102341.42
2018-09-24T17:47:31.301Z,102345.30
2018-09-24T17:50:05.387Z,102350.67
2018-09-24T17:52:38.950Z,102357.50
2018-09-24T17:55:12.391Z,102363.25
2018-09-24T17:57:45.853Z,102373.66
2018-09-24T18:00:19.304Z,102372.78
2018-09-24T18:02:52.783Z,102380.39
2018-09-24T18:05:26.358Z,102384.58
2018-09-24T18:08:01.063Z,102387.27
2018-09-24T18:10:34.763Z,102389.10
2018-09-24T18:13:08.315Z,102387.41
2018-09-24T18:15:41.841Z,102400.62
2018-09-24T18:18:15.500Z,102402.89
2018-09-24T18:20:50.301Z,102409.41
2018-09-24T18:23:23.995Z,102405.67
2018-09-24T18:25:57.445Z,102411.05
2018-09-24T18:28:31.895Z,102404.52
2018-09-24T18:31:06.049Z,102412.91
2018-09-24T18:33:41.220Z,102422.80
2018-09-24T18:36:15.411Z,102429.06
2018-09-24T18:38:50.218Z,102442.98
2018-09-24T18:41:24.135Z,102440.95
2018-09-24T18:43:57.571Z,102444.71
2018-09-24T18:46:32.231Z,102448.05
2018-09-24T18:49:05.864Z,102457.99
2018-09-24T18:51:40.669Z,102464.34
2018-09-24T18:54:14.371Z,102460.24
2018-09-24T18:56:51.263Z,102463.98
2018-09-24T18:59:25.058Z,102464.48
2018-09-24T19:01:58.533Z,102470.78
2018-09-24T19:04:38.402Z,102470.59
2018-09-24T19:07:12.085Z,102476.81
2018-09-24T19:09:45.895Z,102470.72
2018-09-24T19:12:19.444Z,102484.67
2018-09-24T19:14:53.187Z,102483.17
2018-09-24T19:17:26.769Z,102481.99
2018-09-24T19:20:00.445Z,102480.70
2018-09-24T19:22:34.151Z,102486.48
2018-09-24T19:25:08.071Z,102482.77
2018-09-24T19:27:42.832Z,102492.13
2018-09-24T19:30:16.565Z,102491.06
2018-09-24T19:32:50.187Z,102491.70
2018-09-24T19:35:42.177Z,102506.39
2018-09-24T19:38:17.138Z,102504.50
2018-09-24T19:40:51.724Z,102500.82
2018-09-24T19:46:30.228Z,102497.25
2018-09-24T19:49:03.923Z,102505.14
2018-09-24T19:51:37.616Z,102497.54
2018-09-24T19:54:11.955Z,102508.59
2018-09-24T19:56:47.803Z,102508.12
2018-09-24T19:59:26.860Z,102519.19
2018-09-24T20:02:16.638Z,102521.86
2018-09-24T20:04:51.424Z,102518.65
2018-09-24T20:07:31.228Z,102529.78
2018-09-24T20:10:08.279Z,102524.58
2018-09-24T20:12:48.098Z,102518.05
2018-09-24T20:15:38.951Z,102519.54
2018-09-24T20:18:12.955Z,102534.20
2018-09-24T20:20:47.466Z,102541.12
2018-09-24T20:23:21.629Z,102539.72
2018-09-24T20:25:55.880Z,102541.47
2018-09-24T20:28:29.368Z,102537.58
2018-09-24T20:31:03.103Z,102546.66
2018-09-24T20:33:36.807Z,102540.56
2018-09-24T20:36:16.466Z,102544.08
2018-09-24T20:38:50.343Z,102538.19
2018-09-24T20:41:23.866Z,102545.79
2018-09-24T20:43:57.799Z,102549.75
2018-09-24T20:46:31.779Z,102550.20
2018-09-24T20:49:05.416Z,102550.66
2018-09-24T20:51:39.194Z,102558.05
2018-09-24T20:54:12.715Z,102550.69
2018-09-24T20:56:46.789Z,102553.13
2018-09-24T20:59:20.433Z,102557.25
2018-09-24T21:01:54.096Z,102559.93
2018-09-24T21:04:28.457Z,102570.70
2018-09-24T21:07:01.921Z,102570.10
2018-09-24T21:09:35.416Z,102572.78
2018-09-24T21:12:10.365Z,102568.13
2018-09-24T21:14:43.993Z,102575.85
2018-09-24T21:17:17.476Z,102570.67
2018-09-24T21:19:50.956Z,102568.05
2018-09-24T21:22:24.919Z,102569.75
2018-09-24T21:24:58.435Z,102572.82
2018-09-24T21:27:33.347Z,102573.62
2018-09-24T21:30:07.298Z,102583.34
2018-09-24T21:32:40.685Z,102593.25
2018-09-24T21:35:14.569Z,102595.98
2018-09-24T21:37:48.223Z,102599.63
2018-09-24T21:40:21.750Z,102589.67
2018-09-24T21:42:55.422Z,102588.31
2018-09-24T21:45:29.083Z,102601.56
2018-09-24T21:48:02.756Z,102602.59
2018-09-24T21:50:36.389Z,102600.09
2018-09-24T21:53:09.852Z,102607.64
2018-09-24T21:55:43.290Z,102609.13
2018-09-24T21:58:16.845Z,102615.64
2018-09-24T22:00:50.433Z,102626.06
2018-09-24T22:03:23.891Z,102623.50
2018-09-24T22:05:58.135Z,102633.31
2018-09-24T22:08:31.769Z,102628.47
2018-09-24T22:11:05.567Z,102639.47
2018-09-24T22:13:39.047Z,102636.94
2018-09-24T22:16:16.848Z,102640.37
2018-09-24T22:18:52.735Z,102640.17
2018-09-24T22:21:26.316Z,102637.55
2018-09-24T22:23:59.791Z,102633.56
2018-09-24T22:26:33.455Z,102637.75
2018-09-24T22:29:07.001Z,102640.32
2018-09-24T22:31:40.681Z,102637.66
2018-09-24T22:34:14.355Z,102638.42
2018-09-24T22:36:47.949Z,102648.77
2018-09-24T22:39:42.111Z,102642.98
2018-09-24T22:42:23.898Z,102645.70
2018-09-24T22:44:57.795Z,102648.02
2018-09-24T22:50:44.836Z,102659.22
2018-09-24T22:53:18.474Z,102658.59
2018-09-24T22:55:52.205Z,102663.82
2018-09-24T22:58:25.733Z,102661.63
2018-09-24T23:01:00.376Z,102657.52
2018-09-24T23:03:33.875Z,102658.33
2018-09-24T23:06:07.425Z,102666.12
2018-09-24T23:08:40.948Z,102659.55
2018-09-24T23:11:14.444Z,102661.55
2018-09-24T23:13:47.795Z,102660.73
2018-09-24T23:16:21.303Z,102657.70
2018-09-24T23:18:54.747Z,102651.04
2018-09-24T23:21:28.259Z,102646.08
2018-09-24T23:24:01.724Z,102660.71
2018-09-24T23:26:35.320Z,102656.11
2018-09-24T23:29:08.735Z,102654.53
2018-09-24T23:31:42.249Z,102660.45
2018-09-24T23:34:15.753Z,102655.15
2018-09-24T23:36:49.277Z,102656.09
2018-09-24T23:39:22.627Z,102652.09
2018-09-24T23:41:56.007Z,102648.59
2018-09-24T23:44:29.505Z,102659.86
2018-09-24T23:47:03.020Z,102663.02
2018-09-24T23:49:36.366Z,102673.28
2018-09-24T23:52:09.810Z,102675.72
2018-09-24T23:54:43.246Z,102683.17
2018-09-24T23:57:16.700Z,102688.19
2018-09-24T23:59:50.147Z,102689.17
